This is the latest recevied weather packets stored in our database for station/object VK3BYD-3. If no packets are shown the sender has not sent any weather packets the latest 10 day(s).
| Time | Temp. | Humidity | Pressure | Rain* | Wind** | Luminosity | Snow |
|---|---|---|---|---|---|---|---|
| 1777513316 | 24.44° C | 50% | 1028.1 hPa | 0 mm | - | - | - |
| 1777512416 | 23.89° C | 52% | 1028.3 hPa | 0 mm | - | - | - |
| 1777511515 | 23.33° C | 53% | 1028.5 hPa | 0 mm | - | - | - |
| 1777510614 | 23.33° C | 53% | 1028.8 hPa | 0 mm | - | - | - |
| 1777509714 | 22.78° C | 54% | 1028.9 hPa | 0 mm | - | - | - |
| 1777508814 | 22.78° C | 56% | 1029 hPa | 0 mm | - | - | - |
| 1777507913 | 22.22° C | 57% | 1029.1 hPa | 0 mm | - | - | - |
| 1777507013 | 21.67° C | 59% | 1029.2 hPa | 0 mm | - | - | - |
| 1777506113 | 20.56° C | 62% | 1029.3 hPa | 0 mm | - | - | - |
| 1777505204 | 18.33° C | 71% | 1029.3 hPa | 0 mm | - | - | - |
| 1777504304 | 16.67° C | 79% | 1029.3 hPa | 0 mm | - | - | - |
| 1777503404 | 14.44° C | 85% | 1029.3 hPa | 0 mm | - | - | - |
| 1777502502 | 13.33° C | 88% | 1029.3 hPa | 0 mm | - | - | - |
| 1777501601 | 12.22° C | 91% | 1029.3 hPa | 0 mm | - | - | - |
| 1777500696 | 11.11° C | 94% | 1029.2 hPa | 0 mm | - | - | - |
| 1777499793 | 10° C | 96% | 1029.2 hPa | 0 mm | - | - | - |
| 1777498892 | 8.89° C | 96% | 1029 hPa | 0 mm | - | - | - |
| 1777497992 | 8.89° C | 95% | 1028.9 hPa | 0 mm | - | - | - |
| 1777497091 | 8.33° C | 93% | 1028.7 hPa | 0 mm | - | - | - |
| 1777496191 | 8.89° C | 95% | 1028.5 hPa | 0 mm | - | - | - |
| 1777495290 | 8.89° C | 95% | 1028.5 hPa | 0 mm | - | - | - |
| 1777494390 | 8.89° C | 96% | 1028.3 hPa | 0 mm | - | - | - |
| 1777493489 | 8.33° C | 96% | 1028.2 hPa | 0 mm | - | - | - |
| 1777492587 | 8.33° C | 98% | 1028.1 hPa | 0 mm | - | - | - |
| 1777491688 | 7.22° C | 96% | 1028 hPa | 0 mm | - | - | - |
* Rain latest hour (hover to see other rain measurements)
** Current wind speed in m/s (hover to see current wind gust speed)